Terminal Aerodrome Forecast
Issued by NWS

Home | Current Version | Previous Version | Text Only | Print | Product List | Glossary Off
Versions: 1 2 3 4 5 6 7 8 9 10 11 12 13 14 15 16 17 18 19 20 21 22 23 24 25 26 27

000
FTUS43 KFGF 221120
TAFBJI
TAF
KBJI 221120Z 2212/2312 25006KT P6SM FEW250
     FM221800 27013G21KT P6SM FEW200
     FM222200 34009KT P6SM SCT150
     FM230000 02009KT P6SM SCT150
     FM230500 02010KT P6SM -RA OVC015
     FM230900 03008KT P6SM -RASN OVC010
     FM231100 05007KT P6SM OVC010=

USA.gov is the U.S. government's official web portal to all federal, state and local government web resources and services.